Maracaju, Brazil
Current Conditions -  °F | °C
As of 6:00 PM on Wednesday 28 Jan 2015 (Local Time) from SBPP Reporting Station
Scattered Clouds Scattered Clouds  
Wind Chill: 73°   Ceiling: Unl
Heat Index: 73°   Visibility: 6mi
Dew Point: 70°   Wind: 7mph
Humidity: 88%   Direction: 360°N
Pressure: 29.85"   Gusts: NA
Location:  21.61°S, 55.17°W
Report Text: SBPP 282100Z 36006KT 9999 FEW007 SCT070 23/21 Q1011
Loading
Personal Weather Stations






























Interactive Weather Map New forecast layout! Learn more

10-Day Weather Forecast

Advertisements
Track Severe Weather on mobile